createdAt,value
2023-05-06T00:00:26.969Z,18.35
2023-05-06T00:02:55.498Z,18.36
2023-05-06T00:05:24.029Z,18.36
2023-05-06T00:07:52.221Z,18.29
2023-05-06T00:10:21.359Z,18.29
2023-05-06T00:12:51.148Z,18.28
2023-05-06T00:15:19.553Z,18.30
2023-05-06T00:17:47.792Z,18.33
2023-05-06T00:20:16.167Z,18.34
2023-05-06T00:22:44.433Z,18.30
2023-05-06T00:25:12.720Z,18.32
2023-05-06T00:27:41.008Z,18.32
2023-05-06T00:30:12.597Z,18.35
2023-05-06T00:32:41.085Z,18.27
2023-05-06T00:35:10.610Z,18.27
2023-05-06T00:37:38.991Z,18.30
2023-05-06T00:40:08.746Z,18.35
2023-05-06T00:42:37.034Z,18.40
2023-05-06T00:45:06.028Z,18.41
2023-05-06T00:47:35.816Z,18.42
2023-05-06T00:50:04.765Z,18.39
2023-05-06T00:52:33.282Z,18.33
2023-05-06T00:55:01.614Z,18.32
2023-05-06T00:57:30.124Z,18.34
2023-05-06T00:59:58.568Z,18.37
2023-05-06T01:02:39.666Z,18.40
2023-05-06T01:05:17.123Z,18.42
2023-05-06T01:07:51.555Z,18.44
2023-05-06T01:10:25.793Z,18.46
2023-05-06T01:13:00.421Z,18.49
2023-05-06T01:15:34.298Z,18.52
2023-05-06T01:18:06.085Z,18.55
2023-05-06T01:20:38.374Z,18.59
2023-05-06T01:23:13.197Z,18.63
2023-05-06T01:25:41.819Z,18.66
2023-05-06T01:28:11.788Z,18.69
2023-05-06T01:30:47.993Z,18.68
2023-05-06T01:33:25.095Z,18.66
2023-05-06T01:36:03.516Z,18.66
2023-05-06T01:38:42.084Z,18.63
2023-05-06T01:41:17.501Z,18.57
2023-05-06T01:43:48.716Z,18.52
2023-05-06T01:46:20.881Z,18.49
2023-05-06T01:48:54.380Z,18.47
2023-05-06T01:51:25.260Z,18.43
2023-05-06T01:53:55.033Z,18.46
2023-05-06T01:56:24.454Z,18.41
2023-05-06T01:58:52.745Z,18.34
2023-05-06T02:01:21.084Z,18.29
2023-05-06T02:03:49.483Z,18.27
2023-05-06T02:06:18.456Z,18.27
2023-05-06T02:08:46.838Z,18.29
2023-05-06T02:11:21.246Z,18.28
2023-05-06T02:13:51.619Z,18.21
2023-05-06T02:16:21.963Z,18.13
2023-05-06T02:18:50.964Z,18.15
2023-05-06T02:21:19.308Z,18.17
2023-05-06T02:23:47.565Z,18.21
2023-05-06T02:26:16.583Z,18.26
2023-05-06T02:28:46.258Z,18.28
2023-05-06T02:31:15.952Z,18.28
2023-05-06T02:33:44.873Z,18.29
2023-05-06T02:36:13.372Z,18.28
2023-05-06T02:38:41.710Z,18.27
2023-05-06T02:41:10.706Z,18.24
2023-05-06T02:43:39.045Z,18.21
2023-05-06T02:46:08.791Z,18.14
2023-05-06T02:48:37.040Z,18.08
2023-05-06T02:51:06.340Z,18.00
2023-05-06T02:53:34.732Z,17.95
2023-05-06T02:56:02.900Z,17.92
2023-05-06T02:58:31.169Z,17.92
2023-05-06T03:00:59.510Z,17.89
2023-05-06T03:03:29.371Z,17.85
2023-05-06T03:05:57.622Z,17.82
2023-05-06T03:08:26.041Z,17.81
2023-05-06T03:10:54.327Z,17.77
2023-05-06T03:13:23.079Z,17.77
2023-05-06T03:15:54.972Z,17.70
2023-05-06T03:18:23.687Z,17.63
2023-05-06T03:20:53.773Z,17.67
2023-05-06T03:23:22.192Z,17.70
2023-05-06T03:25:50.752Z,17.72
2023-05-06T03:28:20.725Z,17.74
2023-05-06T03:30:50.461Z,17.76
2023-05-06T03:33:18.760Z,17.76
2023-05-06T03:35:46.979Z,17.69
2023-05-06T03:38:16.696Z,17.67
2023-05-06T03:40:51.768Z,17.66
2023-05-06T03:43:19.974Z,17.60
2023-05-06T03:45:51.491Z,17.52
2023-05-06T03:48:19.693Z,17.47
2023-05-06T03:50:48.015Z,17.45
2023-05-06T03:53:18.836Z,17.39
2023-05-06T03:55:48.872Z,17.30
2023-05-06T03:58:17.701Z,17.29
2023-05-06T04:00:47.427Z,17.22
2023-05-06T04:03:15.865Z,17.11
2023-05-06T04:05:47.640Z,17.06
2023-05-06T04:08:19.186Z,17.08
2023-05-06T04:10:47.820Z,17.07
2023-05-06T04:13:23.383Z,17.06
2023-05-06T04:15:52.485Z,17.08
2023-05-06T04:18:24.448Z,17.05
2023-05-06T04:21:03.153Z,16.99
2023-05-06T04:23:34.998Z,16.95
2023-05-06T04:26:03.240Z,16.90
2023-05-06T04:28:33.569Z,16.86
2023-05-06T04:31:02.246Z,16.81
2023-05-06T04:33:40.700Z,16.80
2023-05-06T04:36:12.955Z,16.81
2023-05-06T04:38:48.489Z,16.81
2023-05-06T04:41:17.304Z,16.81
2023-05-06T04:43:46.210Z,16.85
2023-05-06T04:46:21.059Z,16.81
2023-05-06T04:48:49.367Z,16.78
2023-05-06T04:51:19.172Z,16.80
2023-05-06T04:53:48.802Z,16.76
2023-05-06T04:56:16.990Z,16.67
2023-05-06T04:58:46.013Z,16.70
2023-05-06T05:01:14.551Z,16.82
2023-05-06T05:03:42.795Z,16.93
2023-05-06T05:06:11.517Z,17.05
2023-05-06T05:08:39.832Z,17.18
2023-05-06T05:11:10.467Z,17.28
2023-05-06T05:13:39.946Z,17.30
2023-05-06T05:16:08.126Z,17.29
2023-05-06T05:18:39.149Z,17.34
2023-05-06T05:21:14.731Z,17.38
2023-05-06T05:23:42.840Z,17.41
2023-05-06T05:26:12.320Z,17.35
2023-05-06T05:28:41.707Z,17.39
2023-05-06T05:31:10.613Z,17.41
2023-05-06T05:33:40.033Z,17.40
2023-05-06T05:36:15.329Z,17.30
2023-05-06T05:38:45.476Z,17.36
2023-05-06T05:41:16.119Z,17.45
2023-05-06T05:43:45.670Z,17.58
2023-05-06T05:46:14.158Z,17.77
2023-05-06T05:48:43.788Z,17.84
2023-05-06T05:51:12.496Z,17.91
2023-05-06T05:53:40.542Z,17.91
2023-05-06T05:56:09.270Z,17.91
2023-05-06T05:58:39.910Z,17.89
2023-05-06T06:01:08.026Z,17.95
2023-05-06T06:03:36.910Z,17.92
2023-05-06T06:06:06.949Z,17.95
2023-05-06T06:08:35.511Z,18.04
2023-05-06T06:11:05.881Z,18.15
2023-05-06T06:13:40.479Z,18.15
2023-05-06T06:16:09.362Z,18.15
2023-05-06T06:18:37.535Z,18.17
2023-05-06T06:21:05.908Z,18.17
2023-05-06T06:23:33.896Z,18.29
2023-05-06T06:26:03.876Z,18.41
2023-05-06T06:28:34.008Z,18.39
2023-05-06T06:31:03.589Z,18.40
2023-05-06T06:33:31.660Z,18.44
2023-05-06T06:35:59.758Z,18.57
2023-05-06T06:38:27.813Z,18.72
2023-05-06T06:40:55.837Z,18.72
2023-05-06T06:43:24.816Z,18.55
2023-05-06T06:45:59.318Z,18.59
2023-05-06T06:48:29.296Z,18.74
2023-05-06T06:50:57.367Z,19.00
2023-05-06T06:53:25.436Z,19.28
2023-05-06T06:55:53.444Z,19.50
2023-05-06T06:58:21.484Z,19.73
2023-05-06T07:00:49.570Z,19.96
2023-05-06T07:03:19.599Z,20.12
2023-05-06T07:05:49.532Z,20.18
2023-05-06T07:08:18.141Z,20.22
2023-05-06T07:10:46.201Z,20.35
2023-05-06T07:13:14.256Z,20.40
2023-05-06T07:15:42.400Z,20.41
2023-05-06T07:18:11.006Z,20.60
2023-05-06T07:20:39.128Z,20.72
2023-05-06T07:23:08.550Z,20.62
2023-05-06T07:25:36.793Z,20.69
2023-05-06T07:28:05.053Z,20.68
2023-05-06T07:30:33.417Z,20.76
2023-05-06T07:33:01.561Z,20.84
2023-05-06T07:35:29.720Z,20.94
2023-05-06T07:38:10.459Z,20.92
2023-05-06T07:40:40.310Z,20.93
2023-05-06T07:43:09.241Z,21.08
2023-05-06T07:45:37.385Z,21.15
2023-05-06T07:48:06.150Z,21.25
2023-05-06T07:50:34.447Z,21.23
2023-05-06T07:53:04.060Z,21.29
2023-05-06T07:55:33.922Z,21.27
2023-05-06T07:58:04.577Z,21.42
2023-05-06T08:00:32.634Z,21.59
2023-05-06T08:03:00.961Z,21.76
2023-05-06T08:05:29.100Z,21.73
2023-05-06T08:07:57.286Z,21.65
2023-05-06T08:10:25.500Z,21.68
2023-05-06T08:12:53.716Z,21.63
2023-05-06T08:15:23.231Z,21.65
2023-05-06T08:17:51.322Z,21.75
2023-05-06T08:20:19.396Z,21.81
2023-05-06T08:22:47.469Z,21.95
2023-05-06T08:25:15.595Z,22.14
2023-05-06T08:27:43.796Z,22.32
2023-05-06T08:30:13.035Z,22.35
2023-05-06T08:32:42.481Z,22.47
2023-05-06T08:35:11.246Z,22.64
2023-05-06T08:37:39.434Z,22.68
2023-05-06T08:40:17.980Z,22.58
2023-05-06T08:42:48.282Z,22.66
2023-05-06T08:45:17.680Z,22.87
2023-05-06T08:47:47.612Z,22.84
2023-05-06T08:50:16.638Z,22.99
2023-05-06T08:52:45.059Z,23.21
2023-05-06T08:55:13.771Z,23.11
2023-05-06T08:57:43.640Z,23.22
2023-05-06T09:00:12.874Z,23.44
2023-05-06T09:02:43.155Z,23.64
2023-05-06T09:05:13.143Z,23.74
2023-05-06T09:07:41.484Z,23.76
2023-05-06T09:10:14.288Z,23.80
2023-05-06T09:12:42.608Z,23.91
2023-05-06T09:15:12.007Z,24.01
2023-05-06T09:17:40.503Z,23.97
2023-05-06T09:20:14.346Z,23.91
2023-05-06T09:22:42.761Z,24.00
2023-05-06T09:25:12.108Z,23.97
2023-05-06T09:27:41.341Z,23.66
2023-05-06T09:30:11.980Z,23.70
2023-05-06T09:32:40.971Z,23.75
2023-05-06T09:35:10.628Z,23.81
2023-05-06T09:37:40.765Z,23.79
2023-05-06T09:40:10.397Z,23.50
2023-05-06T09:42:39.653Z,23.66
2023-05-06T09:45:10.936Z,23.90
2023-05-06T09:47:39.394Z,24.24
2023-05-06T09:50:11.308Z,24.41
2023-05-06T09:52:41.346Z,24.48
2023-05-06T09:55:12.277Z,24.77
2023-05-06T09:57:42.238Z,24.91
2023-05-06T10:00:12.115Z,25.13
2023-05-06T10:02:44.127Z,25.38
2023-05-06T10:05:14.046Z,25.72
2023-05-06T10:07:44.381Z,26.22
2023-05-06T10:10:13.447Z,26.34
2023-05-06T10:12:41.582Z,26.17
2023-05-06T10:15:11.025Z,25.86
2023-05-06T10:17:40.906Z,25.66
2023-05-06T10:20:14.851Z,25.76
2023-05-06T10:22:54.391Z,25.97
2023-05-06T10:25:31.520Z,26.46
2023-05-06T10:28:01.428Z,26.48
2023-05-06T10:30:31.348Z,26.30
2023-05-06T10:33:04.590Z,26.62
2023-05-06T10:35:43.422Z,26.86
2023-05-06T10:38:17.769Z,27.27
2023-05-06T10:40:46.876Z,27.44
2023-05-06T10:43:24.607Z,27.32
2023-05-06T10:46:01.598Z,27.73
2023-05-06T10:48:30.021Z,27.98
2023-05-06T10:51:27.329Z,27.93
2023-05-06T10:54:02.458Z,27.82
2023-05-06T10:56:33.041Z,28.03
2023-05-06T10:59:08.072Z,28.02
2023-05-06T11:01:37.051Z,27.91
2023-05-06T11:04:09.803Z,27.99
2023-05-06T11:06:43.034Z,27.76
2023-05-06T11:09:20.486Z,27.69
2023-05-06T11:11:54.558Z,27.88
2023-05-06T11:14:32.764Z,28.38
2023-05-06T11:17:02.582Z,28.05
2023-05-06T11:19:31.573Z,27.79
2023-05-06T11:22:01.183Z,28.25
2023-05-06T11:24:31.733Z,27.88
2023-05-06T11:27:01.332Z,28.29
2023-05-06T11:29:29.873Z,28.84
2023-05-06T11:31:58.761Z,28.98
2023-05-06T11:34:29.815Z,29.33
2023-05-06T11:37:02.229Z,29.34
2023-05-06T11:39:36.681Z,29.70
2023-05-06T11:42:09.148Z,30.08
2023-05-06T11:44:38.580Z,30.16
2023-05-06T11:47:08.527Z,30.02
2023-05-06T11:49:38.386Z,30.24
2023-05-06T11:52:06.836Z,30.68
2023-05-06T11:54:39.361Z,29.93
2023-05-06T11:57:07.489Z,29.56
2023-05-06T11:59:37.494Z,29.59
2023-05-06T12:02:06.851Z,29.86
2023-05-06T12:04:42.307Z,29.92
2023-05-06T12:07:12.531Z,29.75
2023-05-06T12:09:45.705Z,29.23
2023-05-06T12:12:17.603Z,29.44
2023-05-06T12:14:46.817Z,29.93
2023-05-06T12:17:15.567Z,30.20
2023-05-06T12:19:43.773Z,30.60
2023-05-06T12:22:19.424Z,30.51
2023-05-06T12:24:49.853Z,30.19
2023-05-06T12:27:30.732Z,29.88
2023-05-06T12:29:58.769Z,29.74
2023-05-06T12:32:26.846Z,29.95
2023-05-06T12:34:56.029Z,29.78
2023-05-06T12:37:29.572Z,29.34
2023-05-06T12:39:59.671Z,28.90
2023-05-06T12:42:28.055Z,28.93
2023-05-06T12:44:56.301Z,29.15
2023-05-06T12:47:26.022Z,29.07
2023-05-06T12:49:55.958Z,28.93
2023-05-06T12:52:25.316Z,28.69
2023-05-06T12:54:53.716Z,28.79
2023-05-06T12:57:23.399Z,28.73
2023-05-06T12:59:51.527Z,28.27
2023-05-06T13:02:19.638Z,28.44
2023-05-06T13:04:47.706Z,28.33
2023-05-06T13:07:15.737Z,28.33
2023-05-06T13:09:44.564Z,28.48
2023-05-06T13:12:13.181Z,29.07
2023-05-06T13:14:42.625Z,29.17
2023-05-06T13:17:11.227Z,28.80
2023-05-06T13:19:39.975Z,28.38
2023-05-06T13:22:08.123Z,28.01
2023-05-06T13:24:36.527Z,27.64
2023-05-06T13:27:04.588Z,27.60
2023-05-06T13:29:32.685Z,27.52
2023-05-06T13:32:02.139Z,27.49
2023-05-06T13:34:30.192Z,27.37
2023-05-06T13:36:59.407Z,27.15
2023-05-06T13:39:27.463Z,27.15
2023-05-06T13:41:55.469Z,26.94
2023-05-06T13:44:24.532Z,27.02
2023-05-06T13:46:52.910Z,27.16
2023-05-06T13:49:22.404Z,27.15
2023-05-06T13:51:50.535Z,27.00
2023-05-06T13:54:18.683Z,26.96
2023-05-06T13:56:46.871Z,26.98
2023-05-06T13:59:14.972Z,26.90
2023-05-06T14:01:43.564Z,26.77
2023-05-06T14:04:12.374Z,26.65
2023-05-06T14:06:41.903Z,26.70
2023-05-06T14:09:13.072Z,26.52
2023-05-06T14:11:41.216Z,26.57
2023-05-06T14:14:09.590Z,26.52
2023-05-06T14:16:37.788Z,26.49
2023-05-06T14:19:06.055Z,26.48
2023-05-06T14:21:34.639Z,26.52
2023-05-06T14:24:06.124Z,26.50
2023-05-06T14:26:35.530Z,26.37
2023-05-06T14:29:03.824Z,26.31
2023-05-06T14:31:33.644Z,26.37
2023-05-06T14:34:03.093Z,26.31
2023-05-06T14:36:31.286Z,26.22
2023-05-06T14:38:59.339Z,26.05
2023-05-06T14:41:28.767Z,25.95
2023-05-06T14:43:56.800Z,25.80
2023-05-06T14:46:27.013Z,25.76
2023-05-06T14:48:56.893Z,25.81
2023-05-06T14:51:25.023Z,25.81
2023-05-06T14:53:55.814Z,25.77
2023-05-06T14:56:23.877Z,25.67
2023-05-06T14:58:53.267Z,25.56
2023-05-06T15:01:21.555Z,25.49
2023-05-06T15:03:50.735Z,25.39
2023-05-06T15:06:18.826Z,25.29
2023-05-06T15:08:47.078Z,25.17
2023-05-06T15:11:15.526Z,25.03
2023-05-06T15:13:43.579Z,24.89
2023-05-06T15:16:13.082Z,24.75
2023-05-06T15:18:41.897Z,24.54
2023-05-06T15:21:09.984Z,24.36
2023-05-06T15:23:38.585Z,24.20
2023-05-06T15:26:06.697Z,24.12
2023-05-06T15:28:34.761Z,24.00
2023-05-06T15:31:03.938Z,23.87
2023-05-06T15:33:33.450Z,23.79
2023-05-06T15:36:01.510Z,23.70
2023-05-06T15:38:29.806Z,23.65
2023-05-06T15:40:57.789Z,23.53
2023-05-06T15:45:59.468Z,23.44
2023-05-06T15:48:30.849Z,23.42
2023-05-06T15:51:00.297Z,23.44
2023-05-06T15:53:28.951Z,23.43
2023-05-06T15:56:02.162Z,23.40
2023-05-06T15:58:41.964Z,23.36
2023-05-06T16:01:10.795Z,23.30
2023-05-06T16:03:41.134Z,23.25
2023-05-06T16:06:12.248Z,23.22
2023-05-06T16:08:40.283Z,23.22
2023-05-06T16:11:09.397Z,23.22
2023-05-06T16:13:37.459Z,23.16
2023-05-06T16:16:06.368Z,23.16
2023-05-06T16:18:34.932Z,23.16
2023-05-06T16:21:04.450Z,23.12
2023-05-06T16:23:34.183Z,23.10
2023-05-06T16:26:02.756Z,23.09
2023-05-06T16:28:31.474Z,23.06
2023-05-06T16:30:59.520Z,23.05
2023-05-06T16:33:27.640Z,23.05
2023-05-06T16:35:56.013Z,23.02
2023-05-06T16:38:24.723Z,22.93
2023-05-06T16:40:54.290Z,22.87
2023-05-06T16:43:22.527Z,22.84
2023-05-06T16:45:50.787Z,22.78
2023-05-06T16:48:19.169Z,22.70
2023-05-06T16:51:22.753Z,22.52
2023-05-06T16:53:56.685Z,22.39
2023-05-06T16:56:51.959Z,22.35
2023-05-06T16:59:22.427Z,22.36
2023-05-06T17:01:50.959Z,22.34
2023-05-06T17:04:18.996Z,22.29
2023-05-06T17:06:47.376Z,22.22
2023-05-06T17:09:16.409Z,22.21
2023-05-06T17:11:45.990Z,22.19
2023-05-06T17:14:15.066Z,22.18
2023-05-06T17:16:45.223Z,22.18
2023-05-06T17:19:13.501Z,22.12
2023-05-06T17:21:41.627Z,22.08
2023-05-06T17:24:09.779Z,22.07
2023-05-06T17:26:38.704Z,22.04
2023-05-06T17:29:08.980Z,22.01
2023-05-06T17:31:37.096Z,21.96
2023-05-06T17:34:05.186Z,21.90
2023-05-06T17:36:33.318Z,21.90
2023-05-06T17:39:06.326Z,21.93
2023-05-06T17:41:34.562Z,21.95
2023-05-06T17:44:02.742Z,21.90
2023-05-06T17:46:33.346Z,21.93
2023-05-06T17:49:01.558Z,21.90
2023-05-06T17:51:29.625Z,21.83
2023-05-06T17:53:58.656Z,21.84
2023-05-06T17:56:27.355Z,21.87
2023-05-06T17:58:56.525Z,21.85
2023-05-06T18:01:24.626Z,21.84
2023-05-06T18:03:54.219Z,21.88
2023-05-06T18:06:22.395Z,21.87
2023-05-06T18:08:50.431Z,21.85
2023-05-06T18:11:18.720Z,21.78
2023-05-06T18:13:46.726Z,21.75
2023-05-06T18:16:14.852Z,21.73
2023-05-06T18:18:43.799Z,21.68
2023-05-06T18:21:13.166Z,21.66
2023-05-06T18:23:41.196Z,21.60
2023-05-06T18:26:09.263Z,21.54
2023-05-06T18:28:38.137Z,21.51
2023-05-06T18:31:06.214Z,21.49
2023-05-06T18:33:35.542Z,21.45
2023-05-06T18:36:03.585Z,21.40
2023-05-06T18:38:33.020Z,21.38
2023-05-06T18:41:02.769Z,21.30
2023-05-06T18:43:31.273Z,21.23
2023-05-06T18:45:59.355Z,21.16
2023-05-06T18:48:28.110Z,21.09
2023-05-06T18:50:56.162Z,21.04
2023-05-06T18:53:24.183Z,21.00
2023-05-06T18:55:53.590Z,20.99
2023-05-06T18:58:21.926Z,20.85
2023-05-06T19:00:50.032Z,20.79
2023-05-06T19:03:18.264Z,20.75
2023-05-06T19:05:46.345Z,20.75
2023-05-06T19:08:16.173Z,20.73
2023-05-06T19:10:44.196Z,20.66
2023-05-06T19:13:13.594Z,20.65
2023-05-06T19:15:41.631Z,20.63
2023-05-06T19:18:09.811Z,20.61
2023-05-06T19:20:38.134Z,20.53
2023-05-06T19:23:06.225Z,20.48
2023-05-06T19:25:36.253Z,20.44
2023-05-06T19:28:04.288Z,20.42
2023-05-06T19:30:35.921Z,20.33
2023-05-06T19:33:04.593Z,20.21
2023-05-06T19:35:32.712Z,20.19
2023-05-06T19:38:00.785Z,20.17
2023-05-06T19:40:29.078Z,20.15
2023-05-06T19:43:03.621Z,20.03
2023-05-06T19:45:33.609Z,20.04
2023-05-06T19:48:04.075Z,20.06
2023-05-06T19:50:32.962Z,20.01
2023-05-06T19:53:00.979Z,19.99
2023-05-06T19:55:28.940Z,19.87
2023-05-06T19:57:57.138Z,19.96
2023-05-06T20:00:27.308Z,19.90
2023-05-06T20:02:58.797Z,19.84
2023-05-06T20:05:29.621Z,19.83
2023-05-06T20:07:59.665Z,19.74
2023-05-06T20:10:28.155Z,19.77
2023-05-06T20:12:57.831Z,19.79
2023-05-06T20:15:26.596Z,19.79
2023-05-06T20:17:56.091Z,19.76
2023-05-06T20:20:24.313Z,19.76
2023-05-06T20:22:52.329Z,19.72
2023-05-06T20:25:21.404Z,19.68
2023-05-06T20:27:49.470Z,19.66
2023-05-06T20:30:17.711Z,19.60
2023-05-06T20:32:47.249Z,19.59
2023-05-06T20:35:17.743Z,19.57
2023-05-06T20:37:46.037Z,19.46
2023-05-06T20:40:15.878Z,19.36
2023-05-06T20:42:44.115Z,19.36
2023-05-06T20:45:12.520Z,19.36
2023-05-06T20:47:40.954Z,19.35
2023-05-06T20:50:09.765Z,19.38
2023-05-06T20:52:39.326Z,19.40
2023-05-06T20:55:08.362Z,19.42
2023-05-06T20:57:42.439Z,19.43
2023-05-06T21:00:11.536Z,19.28
2023-05-06T21:02:41.879Z,19.23
2023-05-06T21:05:11.335Z,19.22
2023-05-06T21:07:41.243Z,19.15
2023-05-06T21:10:11.478Z,19.09
2023-05-06T21:12:39.654Z,18.99
2023-05-06T21:15:09.294Z,18.94
2023-05-06T21:17:37.703Z,18.89
2023-05-06T21:20:06.629Z,18.85
2023-05-06T21:22:34.672Z,18.79
2023-05-06T21:25:05.237Z,18.76
2023-05-06T21:27:33.345Z,18.67
2023-05-06T21:30:01.409Z,18.52
2023-05-06T21:32:32.849Z,18.53
2023-05-06T21:35:03.151Z,18.47
2023-05-06T21:37:31.286Z,18.39
2023-05-06T21:40:00.078Z,18.30
2023-05-06T21:42:29.998Z,18.28
2023-05-06T21:44:58.017Z,18.21
2023-05-06T21:47:26.874Z,18.09
2023-05-06T21:49:54.904Z,17.97
2023-05-06T21:52:22.975Z,17.92
2023-05-06T21:54:51.039Z,17.94
2023-05-06T21:57:19.156Z,17.94
2023-05-06T21:59:48.592Z,17.84
2023-05-06T22:02:16.634Z,17.75
2023-05-06T22:04:44.716Z,17.67
2023-05-06T22:07:12.739Z,17.67
2023-05-06T22:09:40.788Z,17.59
2023-05-06T22:12:11.577Z,17.55
2023-05-06T22:14:41.481Z,17.51
2023-05-06T22:17:12.705Z,17.49
2023-05-06T22:19:41.708Z,17.53
2023-05-06T22:22:10.025Z,17.37
2023-05-06T22:24:38.077Z,17.32
2023-05-06T22:27:06.183Z,17.31
2023-05-06T22:29:35.054Z,17.25
2023-05-06T22:32:03.480Z,17.25
2023-05-06T22:34:33.160Z,17.23
2023-05-06T22:37:01.389Z,17.15
2023-05-06T22:39:29.669Z,17.17
2023-05-06T22:41:57.702Z,17.13
2023-05-06T22:44:25.749Z,17.06
2023-05-06T22:46:54.866Z,17.06
2023-05-06T22:49:23.540Z,17.08
2023-05-06T22:51:53.292Z,17.04
2023-05-06T22:54:21.377Z,17.03
2023-05-06T22:56:49.415Z,17.03
2023-05-06T22:59:17.459Z,17.00
2023-05-06T23:01:45.611Z,17.00
2023-05-06T23:04:13.750Z,17.13
2023-05-06T23:06:42.356Z,17.25
2023-05-06T23:09:12.549Z,17.28
2023-05-06T23:11:40.781Z,17.21
2023-05-06T23:14:08.850Z,17.29
2023-05-06T23:16:36.982Z,17.36
2023-05-06T23:19:05.118Z,17.43
2023-05-06T23:21:33.154Z,17.44
2023-05-06T23:24:01.562Z,17.45
2023-05-06T23:26:30.938Z,17.46
2023-05-06T23:28:59.007Z,17.49
2023-05-06T23:31:27.090Z,17.46
2023-05-06T23:33:55.215Z,17.49
2023-05-06T23:36:23.293Z,17.40
2023-05-06T23:38:51.293Z,17.44
2023-05-06T23:41:19.299Z,17.50
2023-05-06T23:43:48.699Z,17.51
2023-05-06T23:46:16.847Z,17.56
2023-05-06T23:48:44.877Z,17.58
2023-05-06T23:51:12.886Z,17.61
2023-05-06T23:53:40.971Z,17.65
2023-05-06T23:56:09.067Z,17.67
2023-05-06T23:58:37.082Z,17.59
